createdAt,value
2019-04-11T00:01:47.805Z,10.23
2019-04-11T00:04:17.714Z,9.53
2019-04-11T00:06:48.382Z,9.33
2019-04-11T00:09:18.913Z,9.80
2019-04-11T00:11:50.329Z,9.40
2019-04-11T00:14:22.068Z,10.13
2019-04-11T00:16:53.380Z,9.57
2019-04-11T00:19:24.256Z,10.80
2019-04-11T00:21:55.238Z,10.03
2019-04-11T00:24:27.007Z,9.30
2019-04-11T00:26:57.749Z,9.50
2019-04-11T00:29:28.305Z,9.90
2019-04-11T00:31:59.019Z,9.57
2019-04-11T00:34:29.585Z,9.97
2019-04-11T00:37:00.998Z,9.93
2019-04-11T00:39:31.919Z,9.03
2019-04-11T00:42:02.651Z,11.00
2019-04-11T00:44:33.230Z,10.63
2019-04-11T00:47:04.773Z,10.90
2019-04-11T00:49:36.586Z,10.10
2019-04-11T00:52:07.247Z,9.37
2019-04-11T00:54:38.590Z,10.60
2019-04-11T00:57:09.494Z,9.43
2019-04-11T00:59:40.640Z,10.17
2019-04-11T01:02:11.590Z,9.97
2019-04-11T01:04:43.200Z,10.03
2019-04-11T01:07:14.503Z,9.77
2019-04-11T01:09:45.061Z,9.50
2019-04-11T01:12:16.533Z,9.50
2019-04-11T01:14:47.154Z,9.70
2019-04-11T01:17:18.049Z,9.80
2019-04-11T01:19:49.055Z,10.00
2019-04-11T01:22:20.226Z,10.30
2019-04-11T01:24:50.787Z,9.07
2019-04-11T01:27:21.663Z,10.30
2019-04-11T01:29:52.263Z,8.90
2019-04-11T01:32:24.380Z,10.00
2019-04-11T01:34:57.105Z,8.90
2019-04-11T01:37:28.054Z,10.53
2019-04-11T01:40:01.588Z,10.03
2019-04-11T01:42:33.349Z,10.00
2019-04-11T01:45:05.243Z,10.00
2019-04-11T01:47:59.369Z,9.70
2019-04-11T01:50:32.694Z,10.67
2019-04-11T01:53:03.683Z,10.77
2019-04-11T01:55:34.755Z,9.30
2019-04-11T01:58:06.572Z,11.30
2019-04-11T02:00:48.676Z,10.00
2019-04-11T02:03:23.633Z,9.33
2019-04-11T02:05:57.290Z,9.20
2019-04-11T02:08:28.217Z,9.30
2019-04-11T02:10:59.328Z,10.80
2019-04-11T02:13:30.083Z,10.87
2019-04-11T02:16:01.407Z,10.00
2019-04-11T02:18:32.010Z,9.93
2019-04-11T02:21:03.225Z,10.70
2019-04-11T02:23:51.109Z,9.73
2019-04-11T02:26:27.998Z,10.47
2019-04-11T02:28:59.355Z,9.80
2019-04-11T02:31:30.609Z,10.63
2019-04-11T02:34:02.459Z,9.77
2019-04-11T02:36:34.300Z,10.33
2019-04-11T02:39:16.416Z,10.53
2019-04-11T02:41:44.357Z,9.73
2019-04-11T02:44:32.058Z,10.20
2019-04-11T02:46:54.490Z,10.80
2019-04-11T02:49:23.758Z,10.97
2019-04-11T02:51:55.961Z,10.67
2019-04-11T02:54:28.221Z,10.07
2019-04-11T02:57:00.407Z,11.70
2019-04-11T02:59:31.946Z,11.80
2019-04-11T03:02:04.525Z,11.20
2019-04-11T03:04:35.097Z,11.93
2019-04-11T03:07:05.967Z,11.93
2019-04-11T03:09:37.459Z,10.40
2019-04-11T03:12:13.340Z,10.97
2019-04-11T03:15:00.765Z,10.10
2019-04-11T03:17:19.589Z,11.73
2019-04-11T03:19:59.441Z,12.30
2019-04-11T03:22:18.214Z,10.83
2019-04-11T03:24:51.055Z,10.10
2019-04-11T03:27:22.562Z,11.27
2019-04-11T03:29:55.893Z,11.37
2019-04-11T03:35:50.977Z,11.17
2019-04-11T03:37:53.592Z,10.30
2019-04-11T03:40:25.834Z,13.00
2019-04-11T03:42:50.288Z,12.40
2019-04-11T03:45:33.340Z,11.90
2019-04-11T03:47:59.093Z,10.73
2019-04-11T03:50:18.938Z,10.77
2019-04-11T03:52:47.314Z,11.60
2019-04-11T03:55:19.317Z,10.80
2019-04-11T03:57:51.836Z,10.40
2019-04-11T04:00:24.787Z,12.17
2019-04-11T04:02:57.381Z,12.40
2019-04-11T04:05:30.679Z,11.50
2019-04-11T04:08:02.298Z,13.03
2019-04-11T04:10:36.166Z,11.20
2019-04-11T04:13:13.270Z,11.27
2019-04-11T04:16:12.057Z,12.07
2019-04-11T04:18:48.627Z,14.63
2019-04-11T04:21:35.353Z,11.43
2019-04-11T04:24:25.861Z,12.27
2019-04-11T04:27:01.703Z,12.00
2019-04-11T04:29:34.825Z,11.43
2019-04-11T04:32:05.409Z,12.03
2019-04-11T04:34:37.346Z,11.30
2019-04-11T04:37:08.341Z,12.20
2019-04-11T04:39:40.291Z,11.90
2019-04-11T04:42:24.230Z,11.30
2019-04-11T04:44:49.013Z,11.70
2019-04-11T04:47:32.529Z,11.40
2019-04-11T04:49:57.126Z,12.37
2019-04-11T04:52:29.552Z,11.83
2019-04-11T04:55:02.194Z,11.90
2019-04-11T04:57:35.079Z,12.47
2019-04-11T05:00:07.055Z,10.60
2019-04-11T05:02:37.593Z,12.73
2019-04-11T05:05:09.407Z,12.17
2019-04-11T05:07:42.888Z,11.80
2019-04-11T05:10:16.267Z,11.97
2019-04-11T05:12:46.893Z,12.23
2019-04-11T05:15:18.696Z,11.20
2019-04-11T05:17:51.343Z,11.83
2019-04-11T05:20:21.978Z,11.87
2019-04-11T05:22:52.617Z,12.07
2019-04-11T05:25:23.253Z,11.80
2019-04-11T05:27:54.076Z,12.97
2019-04-11T05:30:25.225Z,11.10
2019-04-11T05:32:56.302Z,12.00
2019-04-11T05:35:26.992Z,11.97
2019-04-11T05:37:57.906Z,12.60
2019-04-11T05:40:32.233Z,13.20
2019-04-11T05:43:03.840Z,12.70
2019-04-11T05:45:35.926Z,13.77
2019-04-11T05:48:11.538Z,12.63
2019-04-11T05:50:48.453Z,13.17
2019-04-11T05:53:19.848Z,13.00
2019-04-11T05:55:49.467Z,14.20
2019-04-11T05:58:20.144Z,13.80
2019-04-11T06:01:05.410Z,12.77
2019-04-11T06:03:39.423Z,12.63
2019-04-11T06:06:37.766Z,13.20
2019-04-11T06:09:13.360Z,13.10
2019-04-11T06:11:55.868Z,13.47
2019-04-11T06:14:49.351Z,14.13
2019-04-11T06:17:21.907Z,13.97
2019-04-11T06:20:20.209Z,12.10
2019-04-11T06:22:58.251Z,11.23
2019-04-11T06:25:39.076Z,10.80
2019-04-11T06:28:14.052Z,10.80
2019-04-11T06:31:04.473Z,10.97
2019-04-11T06:33:36.934Z,9.37
2019-04-11T06:36:23.297Z,9.67
2019-04-11T06:39:07.125Z,10.20
2019-04-11T06:42:00.940Z,9.30
2019-04-11T06:44:46.217Z,8.53
2019-04-11T06:47:36.767Z,8.57
2019-04-11T06:50:33.556Z,8.80
2019-04-11T06:53:04.501Z,9.50
2019-04-11T06:55:55.092Z,7.40
2019-04-11T06:58:31.855Z,7.97
2019-04-11T07:01:06.538Z,8.00
2019-04-11T07:03:42.652Z,6.90
2019-04-11T07:06:23.856Z,8.00
2019-04-11T07:09:12.509Z,7.33
2019-04-11T07:11:52.665Z,7.20
2019-04-11T07:14:35.442Z,7.80
2019-04-11T07:17:40.648Z,6.80
2019-04-11T07:20:21.799Z,6.33
2019-04-11T07:23:09.876Z,7.80
2019-04-11T07:25:47.588Z,6.43
2019-04-11T07:28:43.850Z,7.27
2019-04-11T07:31:53.099Z,7.73
2019-04-11T07:34:49.863Z,5.77
2019-04-11T07:37:28.627Z,4.90
2019-04-11T07:40:24.411Z,6.57
2019-04-11T07:43:18.459Z,5.50
2019-04-11T07:46:22.844Z,6.20
2019-04-11T07:49:03.791Z,5.77
2019-04-11T07:51:36.610Z,6.77
2019-04-11T07:54:09.898Z,6.07
2019-04-11T07:56:52.793Z,6.80
2019-04-11T07:59:42.416Z,5.40
2019-04-11T08:02:31.871Z,6.70
2019-04-11T08:05:21.496Z,5.67
2019-04-11T08:08:17.621Z,7.20
2019-04-11T08:11:00.358Z,5.80
2019-04-11T08:13:36.824Z,6.80
2019-04-11T08:16:26.673Z,5.40
2019-04-11T08:19:17.629Z,6.43
2019-04-11T08:21:56.794Z,5.60
2019-04-11T08:24:36.682Z,5.40
2019-04-11T08:27:27.387Z,6.27
2019-04-11T08:30:00.240Z,6.07
2019-04-11T08:33:00.334Z,6.23
2019-04-11T08:35:52.932Z,5.60
2019-04-11T08:38:32.183Z,5.30
2019-04-11T08:41:13.514Z,5.90
2019-04-11T08:43:45.460Z,6.20
2019-04-11T08:46:22.687Z,6.10
2019-04-11T08:48:57.273Z,6.57
2019-04-11T08:51:29.396Z,6.47
2019-04-11T08:54:18.205Z,6.87
2019-04-11T08:56:49.514Z,6.67
2019-04-11T08:59:51.473Z,6.40
2019-04-11T09:02:47.060Z,5.90
2019-04-11T09:05:33.349Z,6.23
2019-04-11T09:08:26.845Z,6.50
2019-04-11T09:11:16.890Z,5.87
2019-04-11T09:14:15.783Z,6.30
2019-04-11T09:16:56.236Z,6.50
2019-04-11T09:19:34.774Z,6.10
2019-04-11T09:22:22.921Z,5.53
2019-04-11T09:25:11.113Z,5.90
2019-04-11T09:27:51.041Z,6.10
2019-04-11T09:30:33.932Z,5.87
2019-04-11T09:33:22.671Z,6.20
2019-04-11T09:35:57.569Z,5.70
2019-04-11T09:38:28.844Z,5.40
2019-04-11T09:41:08.172Z,5.80
2019-04-11T09:43:40.038Z,5.67
2019-04-11T09:46:30.733Z,6.10
2019-04-11T09:49:25.275Z,5.30
2019-04-11T09:52:04.358Z,5.47
2019-04-11T09:54:58.837Z,4.93
2019-04-11T09:57:36.577Z,6.30
2019-04-11T10:00:28.719Z,5.63
2019-04-11T10:03:06.732Z,6.60
2019-04-11T10:06:05.303Z,6.17
2019-04-11T10:08:41.782Z,7.10
2019-04-11T10:11:40.172Z,6.83
2019-04-11T10:14:13.487Z,5.87
2019-04-11T10:17:02.294Z,5.73
2019-04-11T10:19:38.285Z,5.83
2019-04-11T10:22:32.066Z,5.97
2019-04-11T10:25:10.677Z,6.97
2019-04-11T10:27:58.784Z,5.57
2019-04-11T10:30:48.164Z,6.10
2019-04-11T10:33:37.186Z,5.67
2019-04-11T10:36:19.304Z,5.93
2019-04-11T10:38:53.481Z,7.10
2019-04-11T10:41:33.315Z,7.07
2019-04-11T10:44:06.135Z,6.13
2019-04-11T10:46:53.879Z,5.47
2019-04-11T10:49:44.185Z,5.87
2019-04-11T10:52:20.574Z,5.73
2019-04-11T10:55:09.394Z,6.43
2019-04-11T10:57:50.000Z,5.57
2019-04-11T11:00:43.196Z,5.33
2019-04-11T11:03:18.219Z,3.60
2019-04-11T11:05:51.511Z,6.20
2019-04-11T11:08:33.113Z,5.47
2019-04-11T11:11:14.789Z,4.77
2019-04-11T11:14:03.057Z,5.77
2019-04-11T11:16:41.871Z,5.87
2019-04-11T11:19:45.799Z,5.60
2019-04-11T11:22:18.866Z,4.60
2019-04-11T11:25:14.167Z,4.90
2019-04-11T11:27:43.958Z,5.13
2019-04-11T11:30:37.679Z,4.07
2019-04-11T11:33:09.854Z,4.87
2019-04-11T11:36:10.713Z,4.70
2019-04-11T11:38:46.225Z,4.93
2019-04-11T11:41:36.455Z,4.70
2019-04-11T11:44:09.807Z,4.47
2019-04-11T11:47:00.803Z,4.60
2019-04-11T11:49:44.803Z,3.60
2019-04-11T11:52:31.958Z,4.10
2019-04-11T11:55:00.074Z,4.00
2019-04-11T11:57:53.109Z,4.20
2019-04-11T12:00:27.212Z,4.07
2019-04-11T12:03:17.030Z,4.50
2019-04-11T12:05:53.668Z,3.10
2019-04-11T12:08:35.238Z,4.90
2019-04-11T12:11:10.149Z,4.83
2019-04-11T12:13:59.943Z,4.63
2019-04-11T12:17:00.346Z,5.00
2019-04-11T12:19:44.691Z,4.60
2019-04-11T12:22:08.451Z,5.17
2019-04-11T12:24:48.610Z,3.67
2019-04-11T12:27:44.188Z,5.43
2019-04-11T12:30:32.121Z,5.47
2019-04-11T12:33:30.354Z,4.40
2019-04-11T12:36:20.981Z,5.03
2019-04-11T12:39:10.914Z,5.33
2019-04-11T12:42:06.255Z,6.37
2019-04-11T12:45:06.426Z,5.43
2019-04-11T12:47:58.480Z,5.13
2019-04-11T12:51:06.936Z,4.97
2019-04-11T12:53:39.198Z,5.33
2019-04-11T12:56:35.896Z,5.93
2019-04-11T12:59:17.557Z,5.40
2019-04-11T13:02:11.555Z,5.60
2019-04-11T13:04:45.165Z,5.60
2019-04-11T13:07:34.346Z,5.60
2019-04-11T13:10:33.941Z,6.47
2019-04-11T13:13:23.396Z,5.47
2019-04-11T13:16:12.902Z,6.37
2019-04-11T13:19:00.151Z,5.27
2019-04-11T13:21:47.352Z,4.53
2019-04-11T13:24:35.891Z,5.53
2019-04-11T13:27:15.245Z,5.30
2019-04-11T13:30:04.721Z,6.00
2019-04-11T13:32:57.624Z,4.97
2019-04-11T13:35:50.287Z,5.80
2019-04-11T13:38:29.203Z,5.03
2019-04-11T13:41:20.257Z,6.00
2019-04-11T13:43:57.183Z,5.67
2019-04-11T13:46:46.720Z,6.30
2019-04-11T13:49:35.658Z,6.60
2019-04-11T13:52:28.460Z,5.27
2019-04-11T13:55:07.254Z,5.60
2019-04-11T13:57:56.785Z,6.13
2019-04-11T14:01:06.237Z,4.90
2019-04-11T14:03:55.762Z,5.40
2019-04-11T14:06:36.325Z,6.00
2019-04-11T14:09:37.840Z,5.43
2019-04-11T14:12:14.090Z,5.50
2019-04-11T14:15:05.991Z,4.97
2019-04-11T14:18:07.068Z,4.83
2019-04-11T14:20:43.027Z,5.40
2019-04-11T14:23:33.538Z,5.67
2019-04-11T14:26:14.098Z,4.90
2019-04-11T14:28:50.404Z,4.97
2019-04-11T14:31:45.703Z,6.13
2019-04-11T14:34:38.191Z,5.80
2019-04-11T14:37:45.212Z,5.20
2019-04-11T14:40:29.165Z,5.47
2019-04-11T14:43:33.761Z,5.00
2019-04-11T14:46:23.366Z,5.47
2019-04-11T14:49:10.187Z,5.53
2019-04-11T14:51:54.634Z,5.23
2019-04-11T14:54:34.824Z,5.60
2019-04-11T14:57:22.833Z,4.80
2019-04-11T14:59:56.881Z,4.80
2019-04-11T15:03:01.893Z,5.63
2019-04-11T15:05:47.647Z,6.00
2019-04-11T15:08:27.114Z,4.77
2019-04-11T15:11:18.455Z,5.33
2019-04-11T15:13:48.797Z,5.07
2019-04-11T15:16:50.287Z,5.10
2019-04-11T15:19:20.989Z,5.40
2019-04-11T15:22:12.596Z,5.63
2019-04-11T15:24:44.301Z,5.17
2019-04-11T15:27:32.362Z,5.90
2019-04-11T15:30:04.604Z,5.10
2019-04-11T15:33:03.869Z,4.60
2019-04-11T15:35:34.521Z,4.70
2019-04-11T15:38:22.508Z,5.17
2019-04-11T15:40:56.916Z,5.30
2019-04-11T15:43:45.146Z,4.30
2019-04-11T15:46:24.104Z,4.73
2019-04-11T15:49:20.569Z,4.30
2019-04-11T15:51:48.886Z,4.97
2019-04-11T15:54:41.529Z,4.60
2019-04-11T15:57:32.061Z,4.77
2019-04-11T16:00:30.662Z,4.73
2019-04-11T16:03:04.018Z,4.33
2019-04-11T16:05:52.340Z,4.97
2019-04-11T16:08:51.139Z,5.20
2019-04-11T16:11:52.662Z,5.70
2019-04-11T16:14:31.588Z,4.53
2019-04-11T16:17:21.064Z,4.73
2019-04-11T16:19:56.566Z,4.70
2019-04-11T16:22:44.855Z,5.07
2019-04-11T16:25:23.187Z,5.20
2019-04-11T16:28:12.681Z,5.30
2019-04-11T16:30:57.520Z,6.30
2019-04-11T16:33:47.897Z,5.00
2019-04-11T16:36:55.480Z,5.47
2019-04-11T16:39:55.124Z,5.23
2019-04-11T16:42:43.498Z,5.40
2019-04-11T16:45:31.553Z,5.63
2019-04-11T16:48:07.528Z,5.30
2019-04-11T16:50:37.925Z,5.07
2019-04-11T16:53:11.545Z,5.50
2019-04-11T16:55:43.219Z,4.80
2019-04-11T16:58:16.916Z,20.43
2019-04-11T17:00:53.351Z,5.10
2019-04-11T17:03:27.127Z,5.20
2019-04-11T17:06:07.122Z,5.03
2019-04-11T17:08:43.444Z,5.40
2019-04-11T17:11:18.967Z,4.00
2019-04-11T17:13:58.621Z,5.10
2019-04-11T17:16:30.870Z,4.50
2019-04-11T17:19:05.399Z,4.80
2019-04-11T17:21:42.795Z,4.77
2019-04-11T17:24:06.514Z,4.37
2019-04-11T17:26:37.140Z,5.30
2019-04-11T17:29:07.798Z,4.63
2019-04-11T17:31:38.371Z,5.30
2019-04-11T17:34:09.010Z,4.50
2019-04-11T17:36:42.106Z,5.33
2019-04-11T17:39:12.957Z,5.47
2019-04-11T17:41:43.512Z,5.73
2019-04-11T17:44:14.130Z,5.13
2019-04-11T17:46:44.826Z,7.60
2019-04-11T17:49:17.004Z,5.30
2019-04-11T17:51:55.672Z,5.10
2019-04-11T17:54:19.983Z,5.20
2019-04-11T17:56:54.845Z,4.93
2019-04-11T17:59:28.083Z,4.27
2019-04-11T18:01:57.940Z,7.03
2019-04-11T18:04:28.589Z,4.70
2019-04-11T18:06:59.258Z,5.30
2019-04-11T18:09:29.897Z,5.10
2019-04-11T18:12:00.815Z,4.83
2019-04-11T18:14:31.744Z,4.40
2019-04-11T18:17:04.620Z,4.43
2019-04-11T18:19:36.841Z,4.57
2019-04-11T18:22:08.496Z,4.27
2019-04-11T18:24:39.992Z,4.73
2019-04-11T18:27:16.173Z,4.90
2019-04-11T18:30:04.952Z,4.20
2019-04-11T18:32:35.535Z,4.47
2019-04-11T18:35:06.526Z,4.37
2019-04-11T18:37:37.085Z,5.37
2019-04-11T18:40:10.414Z,4.50
2019-04-11T18:42:41.191Z,4.47
2019-04-11T18:45:12.176Z,3.50
2019-04-11T18:47:42.787Z,3.63
2019-04-11T18:50:13.906Z,4.30
2019-04-11T18:52:44.492Z,4.43
2019-04-11T18:55:15.474Z,4.10
2019-04-11T18:57:46.215Z,4.50
2019-04-11T19:00:20.193Z,4.20
2019-04-11T19:02:51.113Z,4.33
2019-04-11T19:05:28.650Z,3.90
2019-04-11T19:07:54.185Z,3.93
2019-04-11T19:10:24.772Z,4.20
2019-04-11T19:12:55.551Z,4.50
2019-04-11T19:15:26.169Z,4.50
2019-04-11T19:18:06.303Z,4.50
2019-04-11T19:20:30.638Z,3.80
2019-04-11T19:23:01.275Z,3.93
2019-04-11T19:25:34.258Z,4.10
2019-04-11T19:28:04.946Z,4.77
2019-04-11T19:30:38.084Z,4.00
2019-04-11T19:33:08.786Z,4.70
2019-04-11T19:35:41.588Z,4.17
2019-04-11T19:38:25.313Z,3.90
2019-04-11T19:40:56.115Z,4.80
2019-04-11T19:43:26.741Z,4.83
2019-04-11T19:45:58.654Z,4.07
2019-04-11T19:48:29.501Z,4.40
2019-04-11T19:51:00.027Z,4.77
2019-04-11T19:53:32.781Z,4.40
2019-04-11T19:56:11.918Z,5.00
2019-04-11T19:58:42.579Z,5.27
2019-04-11T20:01:13.174Z,4.30
2019-04-11T20:03:43.841Z,4.97
2019-04-11T20:06:14.528Z,5.50
2019-04-11T20:08:47.651Z,4.17
2019-04-11T20:11:17.387Z,5.70
2019-04-11T20:13:48.024Z,5.30
2019-04-11T20:16:18.618Z,5.73
2019-04-11T20:18:51.213Z,4.33
2019-04-11T20:21:21.620Z,5.00
2019-04-11T20:23:52.339Z,4.47
2019-04-11T20:26:22.936Z,4.27
2019-04-11T20:28:53.565Z,4.83
2019-04-11T20:31:24.139Z,4.97
2019-04-11T20:33:54.758Z,4.90
2019-04-11T20:36:33.204Z,4.77
2019-04-11T20:38:57.722Z,5.10
2019-04-11T20:41:30.204Z,5.13
2019-04-11T20:44:00.529Z,4.70
2019-04-11T20:46:31.074Z,4.90
2019-04-11T20:49:01.825Z,4.63
2019-04-11T20:51:33.593Z,5.03
2019-04-11T20:54:07.247Z,5.27
2019-04-11T20:56:40.211Z,4.73
2019-04-11T20:59:11.870Z,5.40
2019-04-11T21:01:42.397Z,4.47
2019-04-11T21:04:13.121Z,5.13
2019-04-11T21:06:43.646Z,5.77
2019-04-11T21:09:14.443Z,4.60
2019-04-11T21:11:45.031Z,4.30
2019-04-11T21:14:15.695Z,5.50
2019-04-11T21:16:46.216Z,4.50
2019-04-11T21:19:16.884Z,5.63
2019-04-11T21:21:47.433Z,5.13
2019-04-11T21:24:18.096Z,4.63
2019-04-11T21:26:48.680Z,5.10
2019-04-11T21:29:19.266Z,4.60
2019-04-11T21:31:49.837Z,4.33
2019-04-11T21:34:20.538Z,4.20
2019-04-11T21:36:51.132Z,6.07
2019-04-11T21:39:21.730Z,5.20
2019-04-11T21:41:52.280Z,4.53
2019-04-11T21:44:22.953Z,4.63
2019-04-11T21:46:53.535Z,5.33
2019-04-11T21:49:24.145Z,4.60
2019-04-11T21:51:54.690Z,4.60
2019-04-11T21:54:25.308Z,5.37
2019-04-11T21:56:55.893Z,5.07
2019-04-11T21:59:26.503Z,5.17
2019-04-11T22:01:57.030Z,6.93
2019-04-11T22:04:31.137Z,5.13
2019-04-11T22:07:01.505Z,4.50
2019-04-11T22:09:35.513Z,4.33
2019-04-11T22:12:08.191Z,4.80
2019-04-11T22:14:41.240Z,5.07
2019-04-11T22:17:14.906Z,4.80
2019-04-11T22:19:45.818Z,5.00
2019-04-11T22:22:15.399Z,4.43
2019-04-11T22:24:45.992Z,4.53
2019-04-11T22:27:16.598Z,3.97
2019-04-11T22:29:47.118Z,4.80
2019-04-11T22:32:17.757Z,4.70
2019-04-11T22:34:48.443Z,5.03
2019-04-11T22:37:19.010Z,5.00
2019-04-11T22:39:49.539Z,4.37
2019-04-11T22:42:20.206Z,4.30
2019-04-11T22:44:50.790Z,5.50
2019-04-11T22:47:24.531Z,4.53
2019-04-11T22:49:55.115Z,4.53
2019-04-11T22:52:25.726Z,4.70
2019-04-11T22:54:56.246Z,5.23
2019-04-11T22:57:26.979Z,4.97
2019-04-11T22:59:57.600Z,5.07
2019-04-11T23:02:39.968Z,5.17
2019-04-11T23:05:10.598Z,5.30
2019-04-11T23:07:41.145Z,5.17
2019-04-11T23:10:11.816Z,5.17
2019-04-11T23:12:42.941Z,5.00
2019-04-11T23:15:15.092Z,4.87
2019-04-11T23:17:46.220Z,5.30
2019-04-11T23:20:18.848Z,4.73
2019-04-11T23:22:49.519Z,4.83
2019-04-11T23:25:22.104Z,4.53
2019-04-11T23:27:52.531Z,5.17
2019-04-11T23:30:23.069Z,4.93
2019-04-11T23:32:53.702Z,6.17
2019-04-11T23:35:24.374Z,4.73
2019-04-11T23:37:54.910Z,4.30
2019-04-11T23:40:25.436Z,4.30
2019-04-11T23:42:56.289Z,4.20
2019-04-11T23:45:28.419Z,4.60
2019-04-11T23:47:58.957Z,3.60
2019-04-11T23:50:29.516Z,4.50
2019-04-11T23:53:00.125Z,4.40
2019-04-11T23:55:30.952Z,4.03
2019-04-11T23:58:03.449Z,4.27
